sensor_id;sensor_type;location;lat;lon;timestamp;temperature;humidity
58469;DHT22;44257;44.804;10.220;2022-08-27T00:02:15;22.90;99.90
58469;DHT22;44257;44.804;10.220;2022-08-27T00:04:42;22.90;99.90
58469;DHT22;44257;44.804;10.220;2022-08-27T00:07:10;22.90;99.90
58469;DHT22;44257;44.804;10.220;2022-08-27T00:09:37;23.00;99.90
58469;DHT22;44257;44.804;10.220;2022-08-27T00:12:04;22.90;99.90
58469;DHT22;44257;44.804;10.220;2022-08-27T00:14:31;22.90;99.90
58469;DHT22;44257;44.804;10.220;2022-08-27T00:16:58;22.90;99.90
58469;DHT22;44257;44.804;10.220;2022-08-27T00:19:24;22.90;99.90
58469;DHT22;44257;44.804;10.220;2022-08-27T00:21:51;22.90;99.90
58469;DHT22;44257;44.804;10.220;2022-08-27T00:24:17;22.90;99.90
58469;DHT22;44257;44.804;10.220;2022-08-27T00:26:43;22.90;99.90
58469;DHT22;44257;44.804;10.220;2022-08-27T00:29:10;22.90;99.90
58469;DHT22;44257;44.804;10.220;2022-08-27T00:31:35;22.90;99.90
58469;DHT22;44257;44.804;10.220;2022-08-27T00:34:02;22.80;99.90
58469;DHT22;44257;44.804;10.220;2022-08-27T00:36:28;22.80;99.90
58469;DHT22;44257;44.804;10.220;2022-08-27T00:38:55;22.70;99.90
58469;DHT22;44257;44.804;10.220;2022-08-27T00:41:21;22.70;99.90
58469;DHT22;44257;44.804;10.220;2022-08-27T00:43:54;22.70;99.90
58469;DHT22;44257;44.804;10.220;2022-08-27T00:49:09;22.70;99.90
58469;DHT22;44257;44.804;10.220;2022-08-27T00:51:37;22.70;99.90
58469;DHT22;44257;44.804;10.220;2022-08-27T00:54:04;22.60;99.90
58469;DHT22;44257;44.804;10.220;2022-08-27T00:56:36;22.60;99.90
58469;DHT22;44257;44.804;10.220;2022-08-27T00:59:02;22.60;99.90
58469;DHT22;44257;44.804;10.220;2022-08-27T01:01:31;22.60;99.90
58469;DHT22;44257;44.804;10.220;2022-08-27T01:04:00;22.60;99.90
58469;DHT22;44257;44.804;10.220;2022-08-27T01:06:33;22.70;99.90
58469;DHT22;44257;44.804;10.220;2022-08-27T01:09:05;22.70;99.90
58469;DHT22;44257;44.804;10.220;2022-08-27T01:11:32;22.70;99.90
58469;DHT22;44257;44.804;10.220;2022-08-27T01:13:58;22.70;99.90
58469;DHT22;44257;44.804;10.220;2022-08-27T01:16:27;22.70;99.90
58469;DHT22;44257;44.804;10.220;2022-08-27T01:18:55;22.70;99.90
58469;DHT22;44257;44.804;10.220;2022-08-27T01:21:44;22.70;99.90
58469;DHT22;44257;44.804;10.220;2022-08-27T01:27:24;22.70;99.90
58469;DHT22;44257;44.804;10.220;2022-08-27T01:29:51;22.70;99.90
58469;DHT22;44257;44.804;10.220;2022-08-27T01:32:25;22.70;99.90
58469;DHT22;44257;44.804;10.220;2022-08-27T01:34:55;22.70;99.90
58469;DHT22;44257;44.804;10.220;2022-08-27T01:37:22;22.70;99.90
58469;DHT22;44257;44.804;10.220;2022-08-27T01:39:48;22.70;99.90
58469;DHT22;44257;44.804;10.220;2022-08-27T01:42:18;22.70;99.90
58469;DHT22;44257;44.804;10.220;2022-08-27T01:44:51;22.70;99.90
58469;DHT22;44257;44.804;10.220;2022-08-27T01:47:21;22.70;99.90
58469;DHT22;44257;44.804;10.220;2022-08-27T01:49:46;22.70;99.90
58469;DHT22;44257;44.804;10.220;2022-08-27T01:52:14;22.70;99.90
58469;DHT22;44257;44.804;10.220;2022-08-27T01:54:40;22.70;99.90
58469;DHT22;44257;44.804;10.220;2022-08-27T01:57:06;22.60;99.90
58469;DHT22;44257;44.804;10.220;2022-08-27T01:59:32;22.60;99.90
58469;DHT22;44257;44.804;10.220;2022-08-27T02:02:00;22.60;99.90
58469;DHT22;44257;44.804;10.220;2022-08-27T02:04:30;22.60;99.90
58469;DHT22;44257;44.804;10.220;2022-08-27T02:06:58;22.60;99.90
58469;DHT22;44257;44.804;10.220;2022-08-27T02:09:24;22.60;99.90
58469;DHT22;44257;44.804;10.220;2022-08-27T02:11:50;22.70;99.90
58469;DHT22;44257;44.804;10.220;2022-08-27T02:14:17;22.70;99.90
58469;DHT22;44257;44.804;10.220;2022-08-27T02:16:43;22.60;99.90
58469;DHT22;44257;44.804;10.220;2022-08-27T02:19:09;22.60;99.90
58469;DHT22;44257;44.804;10.220;2022-08-27T02:21:35;22.60;99.90
58469;DHT22;44257;44.804;10.220;2022-08-27T02:24:01;22.60;99.90
58469;DHT22;44257;44.804;10.220;2022-08-27T02:26:27;22.70;99.90
58469;DHT22;44257;44.804;10.220;2022-08-27T02:28:53;22.70;99.90
58469;DHT22;44257;44.804;10.220;2022-08-27T02:31:20;22.70;99.90
58469;DHT22;44257;44.804;10.220;2022-08-27T02:33:47;22.70;99.90
58469;DHT22;44257;44.804;10.220;2022-08-27T02:36:15;22.80;99.90
58469;DHT22;44257;44.804;10.220;2022-08-27T02:38:42;22.80;99.90
58469;DHT22;44257;44.804;10.220;2022-08-27T02:41:08;22.70;99.90
58469;DHT22;44257;44.804;10.220;2022-08-27T02:43:34;22.70;99.90
58469;DHT22;44257;44.804;10.220;2022-08-27T02:46:01;22.80;99.90
58469;DHT22;44257;44.804;10.220;2022-08-27T02:48:28;22.80;99.90
58469;DHT22;44257;44.804;10.220;2022-08-27T02:50:53;22.70;99.90
58469;DHT22;44257;44.804;10.220;2022-08-27T02:53:20;22.70;99.90
58469;DHT22;44257;44.804;10.220;2022-08-27T02:55:46;22.70;99.90
58469;DHT22;44257;44.804;10.220;2022-08-27T02:58:12;22.70;99.90
58469;DHT22;44257;44.804;10.220;2022-08-27T03:00:44;22.60;99.90
58469;DHT22;44257;44.804;10.220;2022-08-27T03:03:10;22.60;99.90
58469;DHT22;44257;44.804;10.220;2022-08-27T03:05:36;22.60;99.90
58469;DHT22;44257;44.804;10.220;2022-08-27T03:08:04;22.50;99.90
58469;DHT22;44257;44.804;10.220;2022-08-27T03:10:30;22.50;99.90
58469;DHT22;44257;44.804;10.220;2022-08-27T03:12:56;22.60;99.90
58469;DHT22;44257;44.804;10.220;2022-08-27T03:15:23;22.50;99.90
58469;DHT22;44257;44.804;10.220;2022-08-27T03:17:49;22.50;99.90
58469;DHT22;44257;44.804;10.220;2022-08-27T03:20:40;22.50;99.90
58469;DHT22;44257;44.804;10.220;2022-08-27T03:23:08;22.50;99.90
58469;DHT22;44257;44.804;10.220;2022-08-27T03:25:34;22.50;99.90
58469;DHT22;44257;44.804;10.220;2022-08-27T03:28:00;22.50;99.90
58469;DHT22;44257;44.804;10.220;2022-08-27T03:30:26;22.50;99.90
58469;DHT22;44257;44.804;10.220;2022-08-27T03:32:52;22.50;99.90
58469;DHT22;44257;44.804;10.220;2022-08-27T03:35:19;22.50;99.90
58469;DHT22;44257;44.804;10.220;2022-08-27T03:37:45;22.50;99.90
58469;DHT22;44257;44.804;10.220;2022-08-27T03:40:12;22.50;99.90
58469;DHT22;44257;44.804;10.220;2022-08-27T03:42:38;22.40;99.90
58469;DHT22;44257;44.804;10.220;2022-08-27T03:45:05;22.40;99.90
58469;DHT22;44257;44.804;10.220;2022-08-27T03:47:31;22.40;99.90
58469;DHT22;44257;44.804;10.220;2022-08-27T03:49:57;22.40;99.90
58469;DHT22;44257;44.804;10.220;2022-08-27T03:52:26;22.40;99.90
58469;DHT22;44257;44.804;10.220;2022-08-27T03:54:52;22.40;99.90
58469;DHT22;44257;44.804;10.220;2022-08-27T03:57:18;22.40;99.90
58469;DHT22;44257;44.804;10.220;2022-08-27T03:59:44;22.40;99.90
58469;DHT22;44257;44.804;10.220;2022-08-27T04:02:10;22.40;99.90
58469;DHT22;44257;44.804;10.220;2022-08-27T04:04:36;22.40;99.90
58469;DHT22;44257;44.804;10.220;2022-08-27T04:07:02;22.40;99.90
58469;DHT22;44257;44.804;10.220;2022-08-27T04:09:28;22.40;99.90
58469;DHT22;44257;44.804;10.220;2022-08-27T04:11:54;22.40;99.90
58469;DHT22;44257;44.804;10.220;2022-08-27T04:14:20;22.30;99.90
58469;DHT22;44257;44.804;10.220;2022-08-27T04:16:46;22.30;99.90
58469;DHT22;44257;44.804;10.220;2022-08-27T04:19:13;22.20;99.90
58469;DHT22;44257;44.804;10.220;2022-08-27T04:21:40;22.20;99.90
58469;DHT22;44257;44.804;10.220;2022-08-27T04:24:06;22.10;99.90
58469;DHT22;44257;44.804;10.220;2022-08-27T04:26:34;22.10;99.90
58469;DHT22;44257;44.804;10.220;2022-08-27T04:28:59;22.10;99.90
58469;DHT22;44257;44.804;10.220;2022-08-27T04:31:25;22.00;99.90
58469;DHT22;44257;44.804;10.220;2022-08-27T04:33:51;21.90;99.90
58469;DHT22;44257;44.804;10.220;2022-08-27T04:36:21;21.80;99.90
58469;DHT22;44257;44.804;10.220;2022-08-27T04:38:47;21.80;99.90
58469;DHT22;44257;44.804;10.220;2022-08-27T04:41:13;21.80;99.90
58469;DHT22;44257;44.804;10.220;2022-08-27T04:43:54;21.70;99.90
58469;DHT22;44257;44.804;10.220;2022-08-27T04:46:29;21.80;99.90
58469;DHT22;44257;44.804;10.220;2022-08-27T04:48:59;21.70;99.90
58469;DHT22;44257;44.804;10.220;2022-08-27T04:51:28;21.70;99.90
58469;DHT22;44257;44.804;10.220;2022-08-27T04:53:55;21.70;99.90
58469;DHT22;44257;44.804;10.220;2022-08-27T04:56:23;21.70;99.90
58469;DHT22;44257;44.804;10.220;2022-08-27T04:58:50;21.80;99.90
58469;DHT22;44257;44.804;10.220;2022-08-27T05:01:22;21.80;99.90
58469;DHT22;44257;44.804;10.220;2022-08-27T05:03:48;21.80;99.90
58469;DHT22;44257;44.804;10.220;2022-08-27T05:06:14;21.80;99.90
58469;DHT22;44257;44.804;10.220;2022-08-27T05:08:42;21.80;99.90
58469;DHT22;44257;44.804;10.220;2022-08-27T05:11:10;21.80;99.90
58469;DHT22;44257;44.804;10.220;2022-08-27T05:13:37;21.80;99.90
58469;DHT22;44257;44.804;10.220;2022-08-27T05:16:06;21.80;99.90
58469;DHT22;44257;44.804;10.220;2022-08-27T05:18:34;21.90;99.90
58469;DHT22;44257;44.804;10.220;2022-08-27T05:21:01;21.90;99.90
58469;DHT22;44257;44.804;10.220;2022-08-27T05:23:27;21.90;99.90
58469;DHT22;44257;44.804;10.220;2022-08-27T05:25:53;21.90;99.90
58469;DHT22;44257;44.804;10.220;2022-08-27T05:28:21;22.00;99.90
58469;DHT22;44257;44.804;10.220;2022-08-27T05:30:50;22.10;99.90
58469;DHT22;44257;44.804;10.220;2022-08-27T05:33:20;22.10;99.90
58469;DHT22;44257;44.804;10.220;2022-08-27T05:35:52;22.20;99.90
58469;DHT22;44257;44.804;10.220;2022-08-27T05:38:19;22.20;99.90
58469;DHT22;44257;44.804;10.220;2022-08-27T05:40:46;22.30;99.90
58469;DHT22;44257;44.804;10.220;2022-08-27T05:43:17;22.40;99.90
58469;DHT22;44257;44.804;10.220;2022-08-27T05:45:45;22.40;99.90
58469;DHT22;44257;44.804;10.220;2022-08-27T05:48:13;22.40;99.90
58469;DHT22;44257;44.804;10.220;2022-08-27T05:50:40;22.60;99.90
58469;DHT22;44257;44.804;10.220;2022-08-27T05:53:07;22.80;99.90
58469;DHT22;44257;44.804;10.220;2022-08-27T05:55:42;23.10;99.90
58469;DHT22;44257;44.804;10.220;2022-08-27T05:58:11;23.40;99.90
58469;DHT22;44257;44.804;10.220;2022-08-27T06:00:57;23.60;99.90
58469;DHT22;44257;44.804;10.220;2022-08-27T06:03:32;23.70;99.90
58469;DHT22;44257;44.804;10.220;2022-08-27T06:06:02;23.80;99.90
58469;DHT22;44257;44.804;10.220;2022-08-27T06:08:29;23.80;99.90
58469;DHT22;44257;44.804;10.220;2022-08-27T06:10:55;23.90;99.90
58469;DHT22;44257;44.804;10.220;2022-08-27T06:13:23;24.00;99.90
58469;DHT22;44257;44.804;10.220;2022-08-27T06:15:49;24.10;99.90
58469;DHT22;44257;44.804;10.220;2022-08-27T06:18:15;24.10;99.90
58469;DHT22;44257;44.804;10.220;2022-08-27T06:20:41;24.30;99.90
58469;DHT22;44257;44.804;10.220;2022-08-27T06:23:06;24.60;99.90
58469;DHT22;44257;44.804;10.220;2022-08-27T06:25:32;25.00;99.90
58469;DHT22;44257;44.804;10.220;2022-08-27T06:27:58;25.40;99.90
58469;DHT22;44257;44.804;10.220;2022-08-27T06:30:27;25.70;99.90
58469;DHT22;44257;44.804;10.220;2022-08-27T06:32:52;26.00;99.90
58469;DHT22;44257;44.804;10.220;2022-08-27T06:35:18;26.20;99.90
58469;DHT22;44257;44.804;10.220;2022-08-27T06:37:44;26.40;99.90
58469;DHT22;44257;44.804;10.220;2022-08-27T06:40:10;26.50;99.90
58469;DHT22;44257;44.804;10.220;2022-08-27T06:42:37;26.60;99.90
58469;DHT22;44257;44.804;10.220;2022-08-27T06:45:03;26.60;99.90
58469;DHT22;44257;44.804;10.220;2022-08-27T06:47:32;26.60;99.90
58469;DHT22;44257;44.804;10.220;2022-08-27T06:49:59;26.50;99.90
58469;DHT22;44257;44.804;10.220;2022-08-27T06:52:25;26.50;99.90
58469;DHT22;44257;44.804;10.220;2022-08-27T06:54:50;26.40;99.90
58469;DHT22;44257;44.804;10.220;2022-08-27T06:57:16;26.40;99.90
58469;DHT22;44257;44.804;10.220;2022-08-27T06:59:42;26.50;99.90
58469;DHT22;44257;44.804;10.220;2022-08-27T07:02:09;26.60;99.90
58469;DHT22;44257;44.804;10.220;2022-08-27T07:04:35;26.70;99.90
58469;DHT22;44257;44.804;10.220;2022-08-27T07:07:02;26.80;99.90
58469;DHT22;44257;44.804;10.220;2022-08-27T07:09:29;26.80;99.90
58469;DHT22;44257;44.804;10.220;2022-08-27T07:11:57;26.90;99.90
58469;DHT22;44257;44.804;10.220;2022-08-27T07:14:23;26.90;99.90
58469;DHT22;44257;44.804;10.220;2022-08-27T07:16:49;27.00;99.90
58469;DHT22;44257;44.804;10.220;2022-08-27T07:19:16;27.00;99.90
58469;DHT22;44257;44.804;10.220;2022-08-27T07:21:42;27.10;99.90
58469;DHT22;44257;44.804;10.220;2022-08-27T07:24:08;27.20;99.90
58469;DHT22;44257;44.804;10.220;2022-08-27T07:26:37;27.20;99.90
58469;DHT22;44257;44.804;10.220;2022-08-27T07:29:06;27.20;99.90
58469;DHT22;44257;44.804;10.220;2022-08-27T07:31:32;27.30;99.90
58469;DHT22;44257;44.804;10.220;2022-08-27T07:34:02;27.50;99.90
58469;DHT22;44257;44.804;10.220;2022-08-27T07:36:28;27.50;99.90
58469;DHT22;44257;44.804;10.220;2022-08-27T07:38:54;27.50;99.90
58469;DHT22;44257;44.804;10.220;2022-08-27T07:41:20;27.40;99.90
58469;DHT22;44257;44.804;10.220;2022-08-27T07:43:46;27.30;99.90
58469;DHT22;44257;44.804;10.220;2022-08-27T07:46:30;27.20;99.90
58469;DHT22;44257;44.804;10.220;2022-08-27T07:48:57;27.30;99.90
58469;DHT22;44257;44.804;10.220;2022-08-27T07:51:24;27.30;99.90
58469;DHT22;44257;44.804;10.220;2022-08-27T07:53:51;27.30;99.90
58469;DHT22;44257;44.804;10.220;2022-08-27T07:56:17;27.30;99.90
58469;DHT22;44257;44.804;10.220;2022-08-27T07:58:43;27.50;99.90
58469;DHT22;44257;44.804;10.220;2022-08-27T08:01:09;27.60;99.90
58469;DHT22;44257;44.804;10.220;2022-08-27T08:03:35;27.70;99.90
58469;DHT22;44257;44.804;10.220;2022-08-27T08:06:04;27.70;99.90
58469;DHT22;44257;44.804;10.220;2022-08-27T08:08:31;27.60;99.90
58469;DHT22;44257;44.804;10.220;2022-08-27T08:10:58;27.60;99.90
58469;DHT22;44257;44.804;10.220;2022-08-27T08:13:25;27.50;99.90
58469;DHT22;44257;44.804;10.220;2022-08-27T08:15:51;27.20;99.90
58469;DHT22;44257;44.804;10.220;2022-08-27T08:18:17;27.00;99.90
58469;DHT22;44257;44.804;10.220;2022-08-27T08:20:42;26.80;99.90
58469;DHT22;44257;44.804;10.220;2022-08-27T08:23:09;26.50;99.90
58469;DHT22;44257;44.804;10.220;2022-08-27T08:25:34;26.30;99.90
58469;DHT22;44257;44.804;10.220;2022-08-27T08:28:01;26.00;99.90
58469;DHT22;44257;44.804;10.220;2022-08-27T08:30:27;25.80;99.90
58469;DHT22;44257;44.804;10.220;2022-08-27T08:32:53;25.70;99.90
58469;DHT22;44257;44.804;10.220;2022-08-27T08:35:19;25.60;99.90
58469;DHT22;44257;44.804;10.220;2022-08-27T08:37:46;25.70;99.90
58469;DHT22;44257;44.804;10.220;2022-08-27T08:40:47;25.70;99.90
58469;DHT22;44257;44.804;10.220;2022-08-27T08:43:33;25.60;99.90
58469;DHT22;44257;44.804;10.220;2022-08-27T08:46:20;25.60;99.90
58469;DHT22;44257;44.804;10.220;2022-08-27T08:48:53;25.40;99.90
58469;DHT22;44257;44.804;10.220;2022-08-27T08:53:53;25.10;99.90
58469;DHT22;44257;44.804;10.220;2022-08-27T08:59:12;24.80;99.90
58469;DHT22;44257;44.804;10.220;2022-08-27T09:01:41;24.70;99.90
58469;DHT22;44257;44.804;10.220;2022-08-27T09:04:10;24.50;99.90
58469;DHT22;44257;44.804;10.220;2022-08-27T09:06:44;24.50;99.90
58469;DHT22;44257;44.804;10.220;2022-08-27T09:17:38;24.10;99.90
58469;DHT22;44257;44.804;10.220;2022-08-27T09:20:07;24.30;99.90
58469;DHT22;44257;44.804;10.220;2022-08-27T09:22:56;24.20;99.90
58469;DHT22;44257;44.804;10.220;2022-08-27T09:25:32;24.10;99.90
58469;DHT22;44257;44.804;10.220;2022-08-27T09:28:04;24.00;99.90
58469;DHT22;44257;44.804;10.220;2022-08-27T09:30:41;24.10;99.90
58469;DHT22;44257;44.804;10.220;2022-08-27T09:33:07;24.20;99.90
58469;DHT22;44257;44.804;10.220;2022-08-27T09:36:09;24.20;99.90
58469;DHT22;44257;44.804;10.220;2022-08-27T09:38:36;24.10;99.90
58469;DHT22;44257;44.804;10.220;2022-08-27T09:41:12;24.10;99.90
58469;DHT22;44257;44.804;10.220;2022-08-27T09:43:42;24.00;99.90
58469;DHT22;44257;44.804;10.220;2022-08-27T09:46:34;23.90;99.90
58469;DHT22;44257;44.804;10.220;2022-08-27T09:49:10;23.90;99.90
58469;DHT22;44257;44.804;10.220;2022-08-27T09:51:40;23.90;99.90
58469;DHT22;44257;44.804;10.220;2022-08-27T09:54:06;23.70;99.90
58469;DHT22;44257;44.804;10.220;2022-08-27T09:56:38;23.60;99.90
58469;DHT22;44257;44.804;10.220;2022-08-27T09:59:49;23.60;99.90
58469;DHT22;44257;44.804;10.220;2022-08-27T10:02:05;23.60;99.90
58469;DHT22;44257;44.804;10.220;2022-08-27T10:08:18;23.50;99.90
58469;DHT22;44257;44.804;10.220;2022-08-27T10:13:36;23.40;99.90
58469;DHT22;44257;44.804;10.220;2022-08-27T10:16:38;23.30;99.90
58469;DHT22;44257;44.804;10.220;2022-08-27T10:19:17;23.50;99.90
58469;DHT22;44257;44.804;10.220;2022-08-27T10:23:10;23.80;99.90
58469;DHT22;44257;44.804;10.220;2022-08-27T10:30:54;25.70;99.90
58469;DHT22;44257;44.804;10.220;2022-08-27T10:44:43;27.90;99.90
58469;DHT22;44257;44.804;10.220;2022-08-27T10:52:41;27.70;99.90
58469;DHT22;44257;44.804;10.220;2022-08-27T10:55:23;27.50;99.90
58469;DHT22;44257;44.804;10.220;2022-08-27T11:00:50;27.30;99.90
58469;DHT22;44257;44.804;10.220;2022-08-27T11:09:00;27.00;99.90
58469;DHT22;44257;44.804;10.220;2022-08-27T11:11:45;27.00;99.90
58469;DHT22;44257;44.804;10.220;2022-08-27T11:17:25;26.80;99.90
58469;DHT22;44257;44.804;10.220;2022-08-27T11:22:39;26.60;99.90
58469;DHT22;44257;44.804;10.220;2022-08-27T11:27:48;26.40;99.90
58469;DHT22;44257;44.804;10.220;2022-08-27T11:30:38;26.20;99.90
58469;DHT22;44257;44.804;10.220;2022-08-27T11:39:03;26.00;99.90
58469;DHT22;44257;44.804;10.220;2022-08-27T11:44:07;26.00;99.90
58469;DHT22;44257;44.804;10.220;2022-08-27T11:46:53;26.00;99.90
58469;DHT22;44257;44.804;10.220;2022-08-27T11:49:35;26.10;99.90
58469;DHT22;44257;44.804;10.220;2022-08-27T11:52:06;26.10;99.90
58469;DHT22;44257;44.804;10.220;2022-08-27T11:54:45;26.20;99.90
58469;DHT22;44257;44.804;10.220;2022-08-27T11:57:26;26.20;99.90
58469;DHT22;44257;44.804;10.220;2022-08-27T11:59:52;26.30;99.90
58469;DHT22;44257;44.804;10.220;2022-08-27T12:02:28;26.50;99.90
58469;DHT22;44257;44.804;10.220;2022-08-27T12:05:20;26.70;99.90
58469;DHT22;44257;44.804;10.220;2022-08-27T12:07:50;27.00;99.90
58469;DHT22;44257;44.804;10.220;2022-08-27T12:10:28;27.30;99.90
58469;DHT22;44257;44.804;10.220;2022-08-27T12:15:57;28.30;99.90
58469;DHT22;44257;44.804;10.220;2022-08-27T12:21:18;29.00;99.90
58469;DHT22;44257;44.804;10.220;2022-08-27T12:24:10;29.30;99.90
58469;DHT22;44257;44.804;10.220;2022-08-27T12:26:35;29.50;99.40
58469;DHT22;44257;44.804;10.220;2022-08-27T12:34:49;29.90;98.60
58469;DHT22;44257;44.804;10.220;2022-08-27T12:37:25;30.00;98.70
58469;DHT22;44257;44.804;10.220;2022-08-27T12:39:53;30.10;97.40
58469;DHT22;44257;44.804;10.220;2022-08-27T12:42:20;30.30;96.30
58469;DHT22;44257;44.804;10.220;2022-08-27T12:44:46;30.20;96.40
58469;DHT22;44257;44.804;10.220;2022-08-27T12:47:19;30.10;96.30
58469;DHT22;44257;44.804;10.220;2022-08-27T12:49:52;30.30;97.30
58469;DHT22;44257;44.804;10.220;2022-08-27T12:57:25;31.60;97.10
58469;DHT22;44257;44.804;10.220;2022-08-27T13:00:07;31.80;96.30
58469;DHT22;44257;44.804;10.220;2022-08-27T13:05:44;31.90;95.20
58469;DHT22;44257;44.804;10.220;2022-08-27T13:08:29;31.90;94.20
58469;DHT22;44257;44.804;10.220;2022-08-27T13:11:06;31.90;94.60
58469;DHT22;44257;44.804;10.220;2022-08-27T13:13:32;31.80;94.90
58469;DHT22;44257;44.804;10.220;2022-08-27T13:16:01;31.50;93.50
58469;DHT22;44257;44.804;10.220;2022-08-27T13:18:27;31.10;94.30
58469;DHT22;44257;44.804;10.220;2022-08-27T13:21:06;30.90;95.10
58469;DHT22;44257;44.804;10.220;2022-08-27T13:23:34;30.50;95.10
58469;DHT22;44257;44.804;10.220;2022-08-27T13:26:06;30.30;95.60
58469;DHT22;44257;44.804;10.220;2022-08-27T13:28:33;30.20;94.90
58469;DHT22;44257;44.804;10.220;2022-08-27T13:31:01;30.10;95.30
58469;DHT22;44257;44.804;10.220;2022-08-27T13:33:30;30.10;96.30
58469;DHT22;44257;44.804;10.220;2022-08-27T13:35:57;30.30;95.80
58469;DHT22;44257;44.804;10.220;2022-08-27T13:38:26;30.60;96.20
58469;DHT22;44257;44.804;10.220;2022-08-27T13:40:59;30.80;94.40
58469;DHT22;44257;44.804;10.220;2022-08-27T13:43:36;30.70;94.60
58469;DHT22;44257;44.804;10.220;2022-08-27T13:46:10;30.90;94.90
58469;DHT22;44257;44.804;10.220;2022-08-27T13:48:42;31.10;94.40
58469;DHT22;44257;44.804;10.220;2022-08-27T13:51:10;31.10;93.70
58469;DHT22;44257;44.804;10.220;2022-08-27T13:53:36;31.00;94.20
58469;DHT22;44257;44.804;10.220;2022-08-27T13:56:31;30.80;94.00
58469;DHT22;44257;44.804;10.220;2022-08-27T13:59:12;30.60;93.50
58469;DHT22;44257;44.804;10.220;2022-08-27T14:01:59;30.40;93.80
58469;DHT22;44257;44.804;10.220;2022-08-27T14:09:47;29.90;94.00
58469;DHT22;44257;44.804;10.220;2022-08-27T14:12:40;29.80;95.00
58469;DHT22;44257;44.804;10.220;2022-08-27T14:17:59;29.60;94.00
58469;DHT22;44257;44.804;10.220;2022-08-27T14:20:25;29.40;93.60
58469;DHT22;44257;44.804;10.220;2022-08-27T14:22:51;29.30;94.20
58469;DHT22;44257;44.804;10.220;2022-08-27T14:25:18;29.30;94.30
58469;DHT22;44257;44.804;10.220;2022-08-27T14:27:46;29.40;95.00
58469;DHT22;44257;44.804;10.220;2022-08-27T14:30:17;29.60;95.20
58469;DHT22;44257;44.804;10.220;2022-08-27T14:32:43;29.80;94.90
58469;DHT22;44257;44.804;10.220;2022-08-27T14:35:10;30.20;94.40
58469;DHT22;44257;44.804;10.220;2022-08-27T14:37:39;30.50;94.30
58469;DHT22;44257;44.804;10.220;2022-08-27T14:40:06;30.80;94.20
58469;DHT22;44257;44.804;10.220;2022-08-27T14:42:32;30.80;92.20
58469;DHT22;44257;44.804;10.220;2022-08-27T14:44:59;30.80;92.20
58469;DHT22;44257;44.804;10.220;2022-08-27T14:47:25;30.90;92.80
58469;DHT22;44257;44.804;10.220;2022-08-27T14:49:52;31.20;93.60
58469;DHT22;44257;44.804;10.220;2022-08-27T14:52:18;31.50;92.70
58469;DHT22;44257;44.804;10.220;2022-08-27T14:54:44;31.70;92.40
58469;DHT22;44257;44.804;10.220;2022-08-27T14:57:10;31.70;91.90
58469;DHT22;44257;44.804;10.220;2022-08-27T14:59:37;31.60;92.70
58469;DHT22;44257;44.804;10.220;2022-08-27T15:02:06;31.60;92.60
58469;DHT22;44257;44.804;10.220;2022-08-27T15:04:33;31.60;92.40
58469;DHT22;44257;44.804;10.220;2022-08-27T15:06:59;31.50;92.30
58469;DHT22;44257;44.804;10.220;2022-08-27T15:09:26;31.50;92.00
58469;DHT22;44257;44.804;10.220;2022-08-27T15:11:52;31.30;92.60
58469;DHT22;44257;44.804;10.220;2022-08-27T15:14:39;31.30;92.40
58469;DHT22;44257;44.804;10.220;2022-08-27T15:17:09;31.10;92.30
58469;DHT22;44257;44.804;10.220;2022-08-27T15:19:35;31.00;92.30
58469;DHT22;44257;44.804;10.220;2022-08-27T15:22:21;30.90;92.60
58469;DHT22;44257;44.804;10.220;2022-08-27T15:24:56;31.00;92.60
58469;DHT22;44257;44.804;10.220;2022-08-27T15:27:24;30.90;92.00
58469;DHT22;44257;44.804;10.220;2022-08-27T15:29:50;30.80;92.20
58469;DHT22;44257;44.804;10.220;2022-08-27T15:32:31;30.70;92.40
58469;DHT22;44257;44.804;10.220;2022-08-27T15:35:00;30.60;92.90
58469;DHT22;44257;44.804;10.220;2022-08-27T15:37:26;30.60;92.60
58469;DHT22;44257;44.804;10.220;2022-08-27T15:39:53;30.50;93.10
58469;DHT22;44257;44.804;10.220;2022-08-27T15:42:19;30.50;93.40
58469;DHT22;44257;44.804;10.220;2022-08-27T15:44:47;30.50;93.20
58469;DHT22;44257;44.804;10.220;2022-08-27T15:47:14;30.20;93.40
58469;DHT22;44257;44.804;10.220;2022-08-27T15:49:40;30.00;94.30
58469;DHT22;44257;44.804;10.220;2022-08-27T15:52:07;29.90;94.20
58469;DHT22;44257;44.804;10.220;2022-08-27T15:54:35;29.80;94.20
58469;DHT22;44257;44.804;10.220;2022-08-27T15:57:02;29.80;94.70
58469;DHT22;44257;44.804;10.220;2022-08-27T15:59:29;29.70;94.40
58469;DHT22;44257;44.804;10.220;2022-08-27T16:01:55;29.50;94.50
58469;DHT22;44257;44.804;10.220;2022-08-27T16:04:21;29.40;94.80
58469;DHT22;44257;44.804;10.220;2022-08-27T16:06:47;29.30;94.60
58469;DHT22;44257;44.804;10.220;2022-08-27T16:09:14;29.10;94.60
58469;DHT22;44257;44.804;10.220;2022-08-27T16:11:40;28.90;95.10
58469;DHT22;44257;44.804;10.220;2022-08-27T16:14:06;28.70;95.30
58469;DHT22;44257;44.804;10.220;2022-08-27T16:16:32;28.40;95.90
58469;DHT22;44257;44.804;10.220;2022-08-27T16:19:03;28.20;96.20
58469;DHT22;44257;44.804;10.220;2022-08-27T16:21:30;28.20;96.50
58469;DHT22;44257;44.804;10.220;2022-08-27T16:23:59;28.20;96.10
58469;DHT22;44257;44.804;10.220;2022-08-27T16:26:26;28.20;95.70
58469;DHT22;44257;44.804;10.220;2022-08-27T16:28:52;28.10;96.00
58469;DHT22;44257;44.804;10.220;2022-08-27T16:31:19;28.00;96.20
58469;DHT22;44257;44.804;10.220;2022-08-27T16:33:46;27.90;96.70
58469;DHT22;44257;44.804;10.220;2022-08-27T16:36:12;27.80;96.80
58469;DHT22;44257;44.804;10.220;2022-08-27T16:38:39;27.80;96.80
58469;DHT22;44257;44.804;10.220;2022-08-27T16:41:05;27.80;97.00
58469;DHT22;44257;44.804;10.220;2022-08-27T16:43:31;27.80;97.00
58469;DHT22;44257;44.804;10.220;2022-08-27T16:45:59;27.70;96.60
58469;DHT22;44257;44.804;10.220;2022-08-27T16:48:25;27.50;96.70
58469;DHT22;44257;44.804;10.220;2022-08-27T16:51:26;27.40;96.90
58469;DHT22;44257;44.804;10.220;2022-08-27T16:53:55;27.20;96.80
58469;DHT22;44257;44.804;10.220;2022-08-27T16:56:21;27.00;97.10
58469;DHT22;44257;44.804;10.220;2022-08-27T16:58:48;26.80;97.60
58469;DHT22;44257;44.804;10.220;2022-08-27T17:01:18;26.70;97.80
58469;DHT22;44257;44.804;10.220;2022-08-27T17:03:51;26.60;98.20
58469;DHT22;44257;44.804;10.220;2022-08-27T17:06:18;26.50;98.40
58469;DHT22;44257;44.804;10.220;2022-08-27T17:08:46;26.40;98.50
58469;DHT22;44257;44.804;10.220;2022-08-27T17:11:14;26.30;98.50
58469;DHT22;44257;44.804;10.220;2022-08-27T17:13:41;26.30;98.60